Time,TemperatureF,DewpointF,PressureIn,WindDirection,WindDirectionDegrees,WindSpeedMPH,WindSpeedGustMPH,Humidity,HourlyPrecipIn,Conditions,Clouds,dailyrainin,SoftwareType,DateUTC
2013-06-06 00:00:00,65.0,64.4,29.95,SW,236,0.0,0.0,98,0.00,,OVC,0.00,VWS V14.01,2013-06-06 04:00:00,
2013-06-06 00:01:00,65.0,64.4,29.95,SW,236,0.0,1.0,98,0.00,,OVC,0.00,VWS V14.01,2013-06-06 04:01:00,
2013-06-06 00:03:00,65.1,64.5,29.95,SW,236,0.0,1.0,98,0.00,,OVC,0.00,VWS V14.01,2013-06-06 04:03:00,
2013-06-06 00:05:00,65.1,64.5,29.95,SW,236,1.0,1.0,98,0.00,,OVC,0.00,VWS V14.01,2013-06-06 04:05:00,
2013-06-06 00:09:00,65.1,64.5,29.95,SW,236,0.0,2.0,98,0.00,,OVC,0.00,VWS V14.01,2013-06-06 04:09:00,
2013-06-06 00:14:00,65.1,64.5,29.94,SW,236,0.0,2.0,98,0.00,,OVC,0.00,VWS V14.01,2013-06-06 04:14:00,
2013-06-06 00:15:00,65.1,64.5,29.94,SW,236,0.0,2.0,98,0.00,,OVC,0.00,VWS V14.01,2013-06-06 04:15:00,
2013-06-06 00:20:00,65.1,64.5,29.94,SW,236,0.0,2.0,98,0.00,,OVC,0.00,VWS V14.01,2013-06-06 04:20:00,
2013-06-06 00:25:00,65.1,64.5,29.94,SW,236,0.0,2.0,98,0.00,,OVC,0.00,VWS V14.01,2013-06-06 04:25:00,
2013-06-06 00:30:00,65.1,64.5,29.94,SW,236,0.0,2.0,98,0.00,,OVC,0.00,VWS V14.01,2013-06-06 04:30:00,
2013-06-06 00:35:00,65.0,64.4,29.93,SW,236,0.0,2.0,98,0.01,,OVC,0.01,VWS V14.01,2013-06-06 04:35:00,
2013-06-06 00:41:00,65.0,64.4,29.93,SW,236,0.0,2.0,98,0.08,,OVC,0.08,VWS V14.01,2013-06-06 04:41:00,
2013-06-06 00:46:00,64.9,64.3,29.93,SW,236,0.0,2.0,98,0.19,,OVC,0.19,VWS V14.01,2013-06-06 04:46:00,
2013-06-06 00:51:00,64.9,64.3,29.93,SW,236,0.0,2.0,98,0.20,,OVC,0.20,VWS V14.01,2013-06-06 04:51:00,
2013-06-06 00:56:00,64.7,64.1,29.93,SW,236,0.0,2.0,98,0.21,,OVC,0.21,VWS V14.01,2013-06-06 04:56:00,
2013-06-06 01:00:00,64.7,64.1,29.92,SW,236,0.0,2.0,98,0.22,,OVC,0.22,VWS V14.01,2013-06-06 05:00:00,
2013-06-06 01:01:00,64.6,64.0,29.92,SW,236,0.0,0.0,98,0.23,,OVC,0.23,VWS V14.01,2013-06-06 05:01:00,
2013-06-06 01:06:00,64.5,63.9,29.92,SW,236,0.0,0.0,98,0.23,,OVC,0.23,VWS V14.01,2013-06-06 05:06:00,
2013-06-06 01:12:00,64.3,63.7,29.91,SW,236,0.0,0.0,98,0.23,,OVC,0.23,VWS V14.01,2013-06-06 05:12:00,
2013-06-06 01:17:00,64.2,63.6,29.91,SW,236,0.0,0.0,98,0.23,,OVC,0.23,VWS V14.01,2013-06-06 05:17:00,
2013-06-06 01:22:00,64.1,63.5,29.91,SW,236,0.0,0.0,98,0.23,,OVC,0.23,VWS V14.01,2013-06-06 05:22:00,
2013-06-06 01:27:00,64.0,63.4,29.90,SW,236,0.0,0.0,98,0.23,,OVC,0.23,VWS V14.01,2013-06-06 05:27:00,
2013-06-06 01:32:00,63.9,63.3,29.90,SW,236,0.0,0.0,98,0.23,,OVC,0.23,VWS V14.01,2013-06-06 05:32:00,
2013-06-06 01:37:00,63.9,63.3,29.90,SW,236,0.0,1.0,98,0.23,,OVC,0.23,VWS V14.01,2013-06-06 05:37:00,
2013-06-06 01:42:00,63.9,63.3,29.90,SW,236,0.0,1.0,98,0.23,,OVC,0.23,VWS V14.01,2013-06-06 05:42:00,
2013-06-06 01:47:00,63.8,63.2,29.91,WSW,241,0.0,1.0,98,0.23,,OVC,0.23,VWS V14.01,2013-06-06 05:47:00,
2013-06-06 01:52:00,63.4,62.8,29.91,WSW,242,0.0,3.0,98,0.23,,OVC,0.23,VWS V14.01,2013-06-06 05:52:00,
2013-06-06 01:57:00,63.1,62.2,29.91,WSW,246,0.0,3.0,97,0.23,,OVC,0.23,VWS V14.01,2013-06-06 05:57:00,
2013-06-06 02:00:00,63.0,62.1,29.91,WSW,246,0.0,3.0,97,0.23,,OVC,0.23,VWS V14.01,2013-06-06 06:00:00,
2013-06-06 02:02:00,62.8,62.2,29.90,WSW,246,0.0,1.0,98,0.01,,OVC,0.23,VWS V14.01,2013-06-06 06:02:00,
2013-06-06 02:08:00,62.6,61.7,29.90,WSW,246,0.0,1.0,97,0.01,,OVC,0.23,VWS V14.01,2013-06-06 06:08:00,
2013-06-06 02:13:00,62.5,61.9,29.90,WSW,246,0.0,1.0,98,0.01,,OVC,0.23,VWS V14.01,2013-06-06 06:13:00,
2013-06-06 02:18:00,62.4,61.8,29.90,WSW,246,0.0,1.0,98,0.01,,OVC,0.23,VWS V14.01,2013-06-06 06:18:00,
2013-06-06 02:23:00,62.4,61.8,29.89,WSW,246,0.0,1.0,98,0.01,,OVC,0.23,VWS V14.01,2013-06-06 06:23:00,
2013-06-06 02:28:00,62.4,61.8,29.89,WSW,246,0.0,1.0,98,0.01,,OVC,0.23,VWS V14.01,2013-06-06 06:28:00,
2013-06-06 02:33:00,62.2,61.6,29.89,WSW,246,0.0,1.0,98,0.01,,OVC,0.23,VWS V14.01,2013-06-06 06:33:00,
2013-06-06 02:38:00,62.1,61.5,29.89,WSW,246,0.0,1.0,98,0.01,,OVC,0.23,VWS V14.01,2013-06-06 06:38:00,
2013-06-06 02:43:00,62.1,61.5,29.89,WSW,246,0.0,1.0,98,0.01,,OVC,0.23,VWS V14.01,2013-06-06 06:43:00,
2013-06-06 02:48:00,62.1,61.5,29.89,WSW,246,0.0,1.0,98,0.01,,OVC,0.23,VWS V14.01,2013-06-06 06:48:00,
2013-06-06 02:53:00,62.1,61.5,29.89,WSW,246,0.0,1.0,98,0.01,,OVC,0.23,VWS V14.01,2013-06-06 06:53:00,
2013-06-06 02:58:00,62.2,61.6,29.89,WSW,246,0.0,1.0,98,0.01,,OVC,0.23,VWS V14.01,2013-06-06 06:58:00,
2013-06-06 03:00:00,62.2,61.6,29.89,WSW,246,0.0,1.0,98,0.01,,OVC,0.23,VWS V14.01,2013-06-06 07:00:00,
2013-06-06 03:03:00,62.2,61.6,29.89,WSW,246,0.0,0.0,98,0.00,,OVC,0.23,VWS V14.01,2013-06-06 07:03:00,
2013-06-06 04:00:00,61.9,61.3,29.88,North,0,0.0,0.0,98,0.00,,OVC,0.23,VWS V14.01,2013-06-06 08:00:00,
2013-06-06 05:00:00,61.8,61.2,29.86,North,0,0.0,0.0,98,0.06,,OVC,0.29,VWS V14.01,2013-06-06 09:00:00,
2013-06-06 06:00:00,63.0,62.7,29.86,North,0,0.0,0.0,99,0.07,,OVC,0.30,VWS V14.01,2013-06-06 10:00:00,
2013-06-06 07:00:00,63.6,63.3,29.86,North,0,0.0,0.0,99,0.07,,OVC,0.36,VWS V14.01,2013-06-06 11:00:00,
2013-06-06 08:00:00,64.0,63.4,29.86,WSW,248,0.0,1.0,98,0.06,,OVC,0.36,VWS V14.01,2013-06-06 12:00:00,
2013-06-06 09:44:00,65.6,65.3,29.86,WSW,246,0.0,0.0,99,0.01,,OVC,0.37,VWS V14.01,2013-06-06 13:44:00,
2013-06-06 09:49:00,65.8,65.5,29.86,WSW,246,0.0,1.0,99,0.01,,OVC,0.37,VWS V14.01,2013-06-06 13:49:00,
2013-06-06 09:54:00,65.8,65.5,29.86,WSW,246,0.0,2.0,99,0.01,,OVC,0.37,VWS V14.01,2013-06-06 13:54:00,
2013-06-06 09:59:00,65.9,65.6,29.86,WSW,246,0.0,2.0,99,0.01,,OVC,0.37,VWS V14.01,2013-06-06 13:59:00,
2013-06-06 10:00:00,65.9,65.6,29.86,WSW,246,0.0,2.0,99,0.01,,OVC,0.37,VWS V14.01,2013-06-06 14:00:00,
2013-06-06 10:04:00,66.2,65.9,29.86,WSW,246,0.0,0.0,99,0.00,,OVC,0.37,VWS V14.01,2013-06-06 14:04:00,
2013-06-06 10:09:00,66.2,65.9,29.86,WSW,246,0.0,3.0,99,0.00,,OVC,0.37,VWS V14.01,2013-06-06 14:09:00,
2013-06-06 10:15:00,66.1,65.8,29.86,WSW,246,0.0,3.0,99,0.00,,OVC,0.37,VWS V14.01,2013-06-06 14:15:00,
2013-06-06 10:20:00,66.2,65.9,29.86,WSW,246,0.0,3.0,99,0.00,,OVC,0.37,VWS V14.01,2013-06-06 14:20:00,
2013-06-06 10:25:00,66.4,66.1,29.86,WSW,246,0.0,3.0,99,0.00,,OVC,0.37,VWS V14.01,2013-06-06 14:25:00,
2013-06-06 10:30:00,66.4,66.1,29.85,WSW,246,0.0,3.0,99,0.00,,OVC,0.37,VWS V14.01,2013-06-06 14:30:00,
2013-06-06 10:35:00,66.5,66.2,29.85,WSW,246,0.0,3.0,99,0.00,,OVC,0.37,VWS V14.01,2013-06-06 14:35:00,
2013-06-06 10:40:00,66.6,66.3,29.85,WSW,246,0.0,3.0,99,0.00,,OVC,0.37,VWS V14.01,2013-06-06 14:40:00,
2013-06-06 10:45:00,66.5,65.9,29.85,WSW,246,0.0,3.0,98,0.00,,OVC,0.37,VWS V14.01,2013-06-06 14:45:00,
2013-06-06 10:50:00,66.6,66.0,29.85,WSW,246,0.0,3.0,98,0.00,,OVC,0.37,VWS V14.01,2013-06-06 14:50:00,
2013-06-06 11:00:00,66.7,66.4,29.86,WSW,248,0.0,3.0,99,0.00,,OVC,0.37,VWS V14.01,2013-06-06 15:00:00,
2013-06-06 12:00:00,67.2,66.6,29.86,WSW,248,0.0,4.0,98,0.00,,OVC,0.37,VWS V14.01,2013-06-06 16:00:00,
2013-06-06 13:00:00,67.2,66.6,29.85,WSW,248,0.0,4.0,98,0.00,,OVC,0.37,VWS V14.01,2013-06-06 17:00:00,
2013-06-06 14:00:00,67.6,66.7,29.83,West,270,0.0,2.0,97,0.00,,OVC,0.37,VWS V14.01,2013-06-06 18:00:00,
2013-06-06 15:00:00,68.4,67.2,29.82,WSW,248,0.0,5.0,96,0.00,,OVC,0.37,VWS V14.01,2013-06-06 19:00:00,
2013-06-06 16:00:00,67.5,66.3,29.81,WSW,248,0.0,3.0,96,0.00,,OVC,0.37,VWS V14.01,2013-06-06 20:00:00,
2013-06-06 17:00:00,67.2,66.3,29.80,WSW,248,0.0,3.0,97,0.00,,OVC,0.37,VWS V14.01,2013-06-06 21:00:00,
2013-06-06 18:00:00,66.6,65.7,29.79,WSW,248,0.0,2.0,97,0.26,,OVC,0.63,VWS V14.01,2013-06-06 22:00:00,
2013-06-06 19:00:00,66.5,65.9,29.77,WSW,248,0.0,3.0,98,0.28,,OVC,0.65,VWS V14.01,2013-06-06 23:00:00,
2013-06-06 20:00:00,66.0,65.4,29.78,WNW,292,0.0,2.0,98,0.02,,OVC,0.65,VWS V14.01,2013-06-07 00:00:00,
2013-06-06 21:00:00,65.4,64.8,29.78,WNW,292,0.0,4.0,98,0.01,,OVC,0.66,VWS V14.01,2013-06-07 01:00:00,
2013-06-06 22:00:00,65.1,64.5,29.78,WNW,292,0.0,3.0,98,0.01,,OVC,0.66,VWS V14.01,2013-06-07 02:00:00,
2013-06-06 23:00:00,65.2,64.6,29.79,WNW,292,0.0,1.0,98,0.00,,OVC,0.66,VWS V14.01,2013-06-07 03:00:00,